sensor_id;sensor_type;location;lat;lon;timestamp;pressure;altitude;pressure_sealevel;temperature;humidity
75668;BME280;64266;48.798;44.756;2022-12-10T00:01:32;103079.28;;;-3.86;54.24
75668;BME280;64266;48.798;44.756;2022-12-10T00:03:59;103086.97;;;-3.84;54.96
75668;BME280;64266;48.798;44.756;2022-12-10T00:06:29;103010.16;;;-4.24;54.85
75668;BME280;64266;48.798;44.756;2022-12-10T00:08:55;103029.91;;;-4.21;54.28
75668;BME280;64266;48.798;44.756;2022-12-10T00:11:22;103061.19;;;-3.87;55.54
75668;BME280;64266;48.798;44.756;2022-12-10T00:13:50;103077.91;;;-3.74;53.94
75668;BME280;64266;48.798;44.756;2022-12-10T00:16:19;103072.97;;;-3.80;54.31
75668;BME280;64266;48.798;44.756;2022-12-10T00:18:46;103064.47;;;-3.63;55.15
75668;BME280;64266;48.798;44.756;2022-12-10T00:21:15;103059.56;;;-3.69;54.88
75668;BME280;64266;48.798;44.756;2022-12-10T00:23:43;103063.34;;;-3.58;53.68
75668;BME280;64266;48.798;44.756;2022-12-10T00:26:21;103067.59;;;-3.57;54.05
75668;BME280;64266;48.798;44.756;2022-12-10T00:28:49;103041.28;;;-3.66;54.12
75668;BME280;64266;48.798;44.756;2022-12-10T00:31:20;103065.41;;;-3.66;54.36
75668;BME280;64266;48.798;44.756;2022-12-10T00:33:47;103054.00;;;-3.80;54.11
75668;BME280;64266;48.798;44.756;2022-12-10T00:36:17;103056.88;;;-3.87;54.80
75668;BME280;64266;48.798;44.756;2022-12-10T00:38:44;103001.09;;;-4.14;54.18
75668;BME280;64266;48.798;44.756;2022-12-10T00:41:11;103029.47;;;-3.92;55.09
75668;BME280;64266;48.798;44.756;2022-12-10T00:43:38;103010.59;;;-4.14;55.79
75668;BME280;64266;48.798;44.756;2022-12-10T00:46:04;102966.94;;;-4.42;55.11
75668;BME280;64266;48.798;44.756;2022-12-10T00:48:30;103003.19;;;-4.22;54.77
75668;BME280;64266;48.798;44.756;2022-12-10T00:50:57;103033.50;;;-4.05;55.94
75668;BME280;64266;48.798;44.756;2022-12-10T00:53:24;103027.06;;;-4.15;55.73
75668;BME280;64266;48.798;44.756;2022-12-10T00:55:50;103029.47;;;-4.31;55.30
75668;BME280;64266;48.798;44.756;2022-12-10T00:58:17;103013.50;;;-4.41;55.69
75668;BME280;64266;48.798;44.756;2022-12-10T01:00:42;102977.81;;;-4.54;55.01
75668;BME280;64266;48.798;44.756;2022-12-10T01:03:09;103032.78;;;-4.09;55.21
75668;BME280;64266;48.798;44.756;2022-12-10T01:05:34;102986.47;;;-4.35;55.42
75668;BME280;64266;48.798;44.756;2022-12-10T01:08:01;103027.75;;;-4.12;55.63
75668;BME280;64266;48.798;44.756;2022-12-10T01:10:26;103032.38;;;-4.00;55.79
75668;BME280;64266;48.798;44.756;2022-12-10T01:12:53;103020.16;;;-3.96;55.27
75668;BME280;64266;48.798;44.756;2022-12-10T01:15:19;103028.84;;;-3.97;54.47
75668;BME280;64266;48.798;44.756;2022-12-10T01:17:45;103019.22;;;-4.14;55.11
75668;BME280;64266;48.798;44.756;2022-12-10T01:20:13;102995.00;;;-4.13;54.46
75668;BME280;64266;48.798;44.756;2022-12-10T01:22:39;103021.88;;;-4.15;54.72
75668;BME280;64266;48.798;44.756;2022-12-10T01:25:05;102984.13;;;-4.21;55.61
75668;BME280;64266;48.798;44.756;2022-12-10T01:27:31;103005.59;;;-3.99;54.85
75668;BME280;64266;48.798;44.756;2022-12-10T01:29:57;103006.41;;;-4.17;56.34
75668;BME280;64266;48.798;44.756;2022-12-10T01:32:23;103007.81;;;-4.10;56.34
75668;BME280;64266;48.798;44.756;2022-12-10T01:34:49;103021.63;;;-3.91;54.72
75668;BME280;64266;48.798;44.756;2022-12-10T01:37:15;102995.59;;;-4.26;54.60
75668;BME280;64266;48.798;44.756;2022-12-10T01:39:42;103017.38;;;-3.92;55.78
75668;BME280;64266;48.798;44.756;2022-12-10T01:42:12;102994.31;;;-3.98;56.13
75668;BME280;64266;48.798;44.756;2022-12-10T01:47:08;102991.59;;;-3.76;54.14
75668;BME280;64266;48.798;44.756;2022-12-10T01:49:38;103028.50;;;-3.52;54.83
75668;BME280;64266;48.798;44.756;2022-12-10T01:52:06;103031.19;;;-3.54;55.37
75668;BME280;64266;48.798;44.756;2022-12-10T01:54:39;103007.28;;;-3.60;54.28
75668;BME280;64266;48.798;44.756;2022-12-10T01:59:36;103019.97;;;-3.36;53.70
75668;BME280;64266;48.798;44.756;2022-12-10T02:05:10;103012.19;;;-3.18;53.59
75668;BME280;64266;48.798;44.756;2022-12-10T02:13:13;102990.25;;;-3.11;54.18
75668;BME280;64266;48.798;44.756;2022-12-10T02:15:48;102956.19;;;-3.22;53.88
75668;BME280;64266;48.798;44.756;2022-12-10T02:18:24;103010.72;;;-3.05;54.15
75668;BME280;64266;48.798;44.756;2022-12-10T02:20:55;103003.63;;;-3.02;53.22
75668;BME280;64266;48.798;44.756;2022-12-10T02:23:24;103001.47;;;-3.11;52.73
75668;BME280;64266;48.798;44.756;2022-12-10T02:26:26;103001.56;;;-3.31;53.20
75668;BME280;64266;48.798;44.756;2022-12-10T02:31:42;102958.81;;;-3.77;54.22
75668;BME280;64266;48.798;44.756;2022-12-10T02:34:10;102999.09;;;-3.51;53.76
75668;BME280;64266;48.798;44.756;2022-12-10T02:36:42;102970.03;;;-3.76;54.52
75668;BME280;64266;48.798;44.756;2022-12-10T02:39:14;103004.19;;;-3.68;53.94
75668;BME280;64266;48.798;44.756;2022-12-10T02:41:52;102996.28;;;-3.65;54.19
75668;BME280;64266;48.798;44.756;2022-12-10T02:44:19;102957.69;;;-3.90;54.66
75668;BME280;64266;48.798;44.756;2022-12-10T02:46:48;103007.47;;;-3.46;55.94
75668;BME280;64266;48.798;44.756;2022-12-10T02:49:17;103008.22;;;-3.44;55.24
75668;BME280;64266;48.798;44.756;2022-12-10T02:51:43;102995.94;;;-3.22;55.85
75668;BME280;64266;48.798;44.756;2022-12-10T02:54:40;102994.47;;;-3.28;54.42
75668;BME280;64266;48.798;44.756;2022-12-10T03:05:56;102994.97;;;-3.38;53.71
75668;BME280;64266;48.798;44.756;2022-12-10T03:08:48;102974.34;;;-3.58;55.09
75668;BME280;64266;48.798;44.756;2022-12-10T03:11:17;102988.47;;;-3.47;54.38
75668;BME280;64266;48.798;44.756;2022-12-10T03:14:06;102948.81;;;-3.49;55.37
75668;BME280;64266;48.798;44.756;2022-12-10T03:16:41;103003.00;;;-3.43;54.38
75668;BME280;64266;48.798;44.756;2022-12-10T03:19:14;102968.44;;;-3.43;54.14
75668;BME280;64266;48.798;44.756;2022-12-10T03:21:44;102931.91;;;-3.74;54.00
75668;BME280;64266;48.798;44.756;2022-12-10T03:24:11;102887.59;;;-4.06;54.67
75668;BME280;64266;48.798;44.756;2022-12-10T03:26:39;102982.38;;;-3.46;55.42
75668;BME280;64266;48.798;44.756;2022-12-10T03:29:15;102980.91;;;-3.33;55.63
75668;BME280;64266;48.798;44.756;2022-12-10T03:31:44;102953.75;;;-3.61;54.37
75668;BME280;64266;48.798;44.756;2022-12-10T03:34:11;102938.97;;;-3.78;55.41
75668;BME280;64266;48.798;44.756;2022-12-10T03:36:38;102946.97;;;-3.83;55.47
75668;BME280;64266;48.798;44.756;2022-12-10T03:39:05;102985.00;;;-3.46;55.98
75668;BME280;64266;48.798;44.756;2022-12-10T03:41:31;102975.59;;;-3.48;56.06
75668;BME280;64266;48.798;44.756;2022-12-10T03:43:58;102959.84;;;-3.62;55.42
75668;BME280;64266;48.798;44.756;2022-12-10T03:46:27;102959.78;;;-3.61;55.80
75668;BME280;64266;48.798;44.756;2022-12-10T03:48:54;102989.41;;;-3.48;56.65
75668;BME280;64266;48.798;44.756;2022-12-10T03:51:20;102971.63;;;-3.38;55.01
75668;BME280;64266;48.798;44.756;2022-12-10T03:53:46;102937.59;;;-3.66;55.57
75668;BME280;64266;48.798;44.756;2022-12-10T03:56:16;102869.41;;;-4.23;56.11
75668;BME280;64266;48.798;44.756;2022-12-10T03:58:41;102941.19;;;-3.88;56.51
75668;BME280;64266;48.798;44.756;2022-12-10T04:01:08;102968.69;;;-3.66;56.56
75668;BME280;64266;48.798;44.756;2022-12-10T04:03:36;102962.00;;;-3.53;56.71
75668;BME280;64266;48.798;44.756;2022-12-10T04:06:04;102966.00;;;-3.29;58.00
75668;BME280;64266;48.798;44.756;2022-12-10T04:08:31;102961.16;;;-3.18;55.18
75668;BME280;64266;48.798;44.756;2022-12-10T04:11:08;102975.28;;;-3.06;55.05
75668;BME280;64266;48.798;44.756;2022-12-10T04:13:37;102958.41;;;-3.15;54.74
75668;BME280;64266;48.798;44.756;2022-12-10T04:16:22;102980.66;;;-3.28;55.79
75668;BME280;64266;48.798;44.756;2022-12-10T04:19:05;102986.59;;;-3.26;55.53
75668;BME280;64266;48.798;44.756;2022-12-10T04:21:33;102990.75;;;-3.22;56.71
75668;BME280;64266;48.798;44.756;2022-12-10T04:24:20;102987.16;;;-3.37;55.78
75668;BME280;64266;48.798;44.756;2022-12-10T04:27:08;102951.63;;;-3.53;55.55
75668;BME280;64266;48.798;44.756;2022-12-10T04:29:35;102944.00;;;-3.56;56.59
75668;BME280;64266;48.798;44.756;2022-12-10T04:32:01;102975.31;;;-3.42;56.36
75668;BME280;64266;48.798;44.756;2022-12-10T04:34:27;102984.75;;;-3.41;56.60
75668;BME280;64266;48.798;44.756;2022-12-10T04:36:53;102950.09;;;-3.57;56.92
75668;BME280;64266;48.798;44.756;2022-12-10T04:39:19;102968.84;;;-3.34;55.72
75668;BME280;64266;48.798;44.756;2022-12-10T04:41:47;102996.44;;;-3.14;55.75
75668;BME280;64266;48.798;44.756;2022-12-10T04:44:13;102989.84;;;-3.04;55.16
75668;BME280;64266;48.798;44.756;2022-12-10T04:46:40;102984.38;;;-3.15;55.79
75668;BME280;64266;48.798;44.756;2022-12-10T04:49:07;102921.69;;;-3.42;55.51
75668;BME280;64266;48.798;44.756;2022-12-10T04:51:34;102985.13;;;-3.13;55.80
75668;BME280;64266;48.798;44.756;2022-12-10T04:54:00;102975.03;;;-3.19;55.52
75668;BME280;64266;48.798;44.756;2022-12-10T04:56:26;102959.84;;;-3.26;56.49
75668;BME280;64266;48.798;44.756;2022-12-10T04:58:55;102958.88;;;-3.24;55.60
75668;BME280;64266;48.798;44.756;2022-12-10T05:01:21;102930.38;;;-3.25;56.27
75668;BME280;64266;48.798;44.756;2022-12-10T05:03:47;102970.78;;;-3.03;54.85
75668;BME280;64266;48.798;44.756;2022-12-10T05:06:14;102964.69;;;-3.02;55.85
75668;BME280;64266;48.798;44.756;2022-12-10T05:08:41;102977.81;;;-3.05;55.07
75668;BME280;64266;48.798;44.756;2022-12-10T05:11:11;102936.56;;;-3.28;55.67
75668;BME280;64266;48.798;44.756;2022-12-10T05:13:38;102967.34;;;-3.03;56.12
75668;BME280;64266;48.798;44.756;2022-12-10T05:16:06;102951.41;;;-2.96;55.88
75668;BME280;64266;48.798;44.756;2022-12-10T05:18:33;102950.00;;;-2.86;55.55
75668;BME280;64266;48.798;44.756;2022-12-10T05:21:01;102976.59;;;-2.63;55.29
75668;BME280;64266;48.798;44.756;2022-12-10T05:23:28;102929.94;;;-2.82;55.55
75668;BME280;64266;48.798;44.756;2022-12-10T05:26:14;102964.34;;;-2.61;55.20
75668;BME280;64266;48.798;44.756;2022-12-10T05:28:47;102959.34;;;-2.99;56.78
75668;BME280;64266;48.798;44.756;2022-12-10T05:33:48;103000.25;;;-3.04;56.68
75668;BME280;64266;48.798;44.756;2022-12-10T05:36:17;102985.75;;;-2.91;57.42
75668;BME280;64266;48.798;44.756;2022-12-10T05:38:51;102981.16;;;-2.86;58.09
75668;BME280;64266;48.798;44.756;2022-12-10T05:41:23;102970.31;;;-2.77;57.28
75668;BME280;64266;48.798;44.756;2022-12-10T05:43:50;102978.50;;;-2.50;55.67
75668;BME280;64266;48.798;44.756;2022-12-10T05:46:27;102976.44;;;-2.60;55.86
75668;BME280;64266;48.798;44.756;2022-12-10T05:48:54;102981.78;;;-2.63;56.80
75668;BME280;64266;48.798;44.756;2022-12-10T05:51:24;102976.88;;;-2.69;56.18
75668;BME280;64266;48.798;44.756;2022-12-10T05:53:51;102935.75;;;-2.94;57.53
75668;BME280;64266;48.798;44.756;2022-12-10T05:56:20;102959.78;;;-2.74;56.59
75668;BME280;64266;48.798;44.756;2022-12-10T05:58:48;102962.38;;;-2.74;57.07
75668;BME280;64266;48.798;44.756;2022-12-10T06:01:19;102973.75;;;-2.76;57.51
75668;BME280;64266;48.798;44.756;2022-12-10T06:03:49;102947.72;;;-2.75;57.22
75668;BME280;64266;48.798;44.756;2022-12-10T06:06:24;102914.97;;;-2.94;56.57
75668;BME280;64266;48.798;44.756;2022-12-10T06:08:51;102963.69;;;-2.65;56.79
75668;BME280;64266;48.798;44.756;2022-12-10T06:11:17;102962.38;;;-2.56;56.33
75668;BME280;64266;48.798;44.756;2022-12-10T06:13:43;102954.19;;;-2.49;56.29
75668;BME280;64266;48.798;44.756;2022-12-10T06:16:10;102963.22;;;-2.23;56.64
75668;BME280;64266;48.798;44.756;2022-12-10T06:18:37;102951.13;;;-2.24;56.71
75668;BME280;64266;48.798;44.756;2022-12-10T06:21:08;102912.63;;;-2.49;56.51
75668;BME280;64266;48.798;44.756;2022-12-10T06:23:36;102902.22;;;-2.49;56.08
75668;BME280;64266;48.798;44.756;2022-12-10T06:26:17;102936.56;;;-2.27;55.29
75668;BME280;64266;48.798;44.756;2022-12-10T06:28:47;102946.34;;;-2.32;55.91
75668;BME280;64266;48.798;44.756;2022-12-10T06:31:13;102939.00;;;-2.24;57.25
75668;BME280;64266;48.798;44.756;2022-12-10T06:33:40;102900.94;;;-2.40;56.14
75668;BME280;64266;48.798;44.756;2022-12-10T06:36:08;102940.09;;;-2.12;55.76
75668;BME280;64266;48.798;44.756;2022-12-10T06:38:36;102922.50;;;-2.23;57.83
75668;BME280;64266;48.798;44.756;2022-12-10T06:41:07;102943.88;;;-2.02;56.05
75668;BME280;64266;48.798;44.756;2022-12-10T06:43:33;102959.66;;;-1.89;55.89
75668;BME280;64266;48.798;44.756;2022-12-10T06:46:04;102918.56;;;-2.14;56.23
75668;BME280;64266;48.798;44.756;2022-12-10T06:48:30;102896.41;;;-2.21;57.05
75668;BME280;64266;48.798;44.756;2022-12-10T06:50:56;102927.63;;;-1.90;55.84
75668;BME280;64266;48.798;44.756;2022-12-10T06:53:21;102915.88;;;-1.81;56.68
75668;BME280;64266;48.798;44.756;2022-12-10T06:55:47;102874.38;;;-1.98;55.13
75668;BME280;64266;48.798;44.756;2022-12-10T06:58:14;102899.75;;;-1.72;56.17
75668;BME280;64266;48.798;44.756;2022-12-10T07:00:40;102817.88;;;-2.26;54.76
75668;BME280;64266;48.798;44.756;2022-12-10T07:03:07;102890.53;;;-1.78;55.58
75668;BME280;64266;48.798;44.756;2022-12-10T07:05:32;102893.75;;;-1.73;55.79
75668;BME280;64266;48.798;44.756;2022-12-10T07:07:59;102910.44;;;-1.61;55.17
75668;BME280;64266;48.798;44.756;2022-12-10T07:10:25;102947.22;;;-1.37;55.49
75668;BME280;64266;48.798;44.756;2022-12-10T07:12:51;102942.59;;;-1.32;55.98
75668;BME280;64266;48.798;44.756;2022-12-10T07:15:17;102919.34;;;-1.35;54.63
75668;BME280;64266;48.798;44.756;2022-12-10T07:17:43;102857.34;;;-1.73;54.60
75668;BME280;64266;48.798;44.756;2022-12-10T07:20:09;102939.03;;;-1.16;55.79
75668;BME280;64266;48.798;44.756;2022-12-10T07:22:37;102885.94;;;-1.27;55.01
75668;BME280;64266;48.798;44.756;2022-12-10T07:25:04;102927.31;;;-0.93;55.23
75668;BME280;64266;48.798;44.756;2022-12-10T07:27:30;102920.22;;;-1.05;55.34
75668;BME280;64266;48.798;44.756;2022-12-10T07:29:56;102911.59;;;-1.21;55.90
75668;BME280;64266;48.798;44.756;2022-12-10T07:32:22;102912.16;;;-1.16;56.35
75668;BME280;64266;48.798;44.756;2022-12-10T07:34:49;102903.16;;;-1.11;55.91
75668;BME280;64266;48.798;44.756;2022-12-10T07:37:14;102902.00;;;-0.91;55.67
75668;BME280;64266;48.798;44.756;2022-12-10T07:39:40;102847.69;;;-1.11;56.40
75668;BME280;64266;48.798;44.756;2022-12-10T07:42:08;102874.69;;;-0.84;56.00
75668;BME280;64266;48.798;44.756;2022-12-10T07:44:37;102888.63;;;-0.85;56.20
75668;BME280;64266;48.798;44.756;2022-12-10T07:47:03;102873.34;;;-0.77;57.31
75668;BME280;64266;48.798;44.756;2022-12-10T07:49:29;102884.34;;;-0.72;55.67
75668;BME280;64266;48.798;44.756;2022-12-10T07:51:55;102861.28;;;-0.64;56.51
75668;BME280;64266;48.798;44.756;2022-12-10T07:54:21;102821.84;;;-0.72;56.37
75668;BME280;64266;48.798;44.756;2022-12-10T07:56:48;102863.13;;;-0.51;56.29
75668;BME280;64266;48.798;44.756;2022-12-10T07:59:14;102856.25;;;-0.38;55.85
75668;BME280;64266;48.798;44.756;2022-12-10T08:01:40;102893.56;;;-0.10;55.57
75668;BME280;64266;48.798;44.756;2022-12-10T08:04:06;102873.59;;;-0.11;54.83
75668;BME280;64266;48.798;44.756;2022-12-10T08:06:32;102879.09;;;-0.15;55.95
75668;BME280;64266;48.798;44.756;2022-12-10T08:08:59;102858.63;;;-0.07;55.53
75668;BME280;64266;48.798;44.756;2022-12-10T08:11:26;102856.00;;;-0.07;55.34
75668;BME280;64266;48.798;44.756;2022-12-10T08:13:52;102846.03;;;-0.15;55.78
75668;BME280;64266;48.798;44.756;2022-12-10T08:16:21;102868.28;;;0.05;56.00
75668;BME280;64266;48.798;44.756;2022-12-10T08:18:51;102854.31;;;0.06;56.00
75668;BME280;64266;48.798;44.756;2022-12-10T08:21:19;102854.69;;;0.27;55.17
75668;BME280;64266;48.798;44.756;2022-12-10T08:23:46;102875.84;;;0.49;54.54
75668;BME280;64266;48.798;44.756;2022-12-10T08:26:16;102852.97;;;0.52;55.11
75668;BME280;64266;48.798;44.756;2022-12-10T08:28:42;102866.25;;;0.62;55.06
75668;BME280;64266;48.798;44.756;2022-12-10T08:31:10;102871.84;;;0.70;55.17
75668;BME280;64266;48.798;44.756;2022-12-10T08:33:37;102864.72;;;0.72;54.65
75668;BME280;64266;48.798;44.756;2022-12-10T08:36:06;102855.84;;;0.75;56.40
75668;BME280;64266;48.798;44.756;2022-12-10T08:38:32;102866.50;;;0.84;55.35
75668;BME280;64266;48.798;44.756;2022-12-10T08:40:58;102844.91;;;0.82;55.37
75668;BME280;64266;48.798;44.756;2022-12-10T08:43:25;102862.88;;;0.99;54.63
75668;BME280;64266;48.798;44.756;2022-12-10T08:45:51;102869.56;;;0.91;55.35
75668;BME280;64266;48.798;44.756;2022-12-10T08:48:16;102850.22;;;0.81;55.10
75668;BME280;64266;48.798;44.756;2022-12-10T08:50:43;102867.19;;;1.13;56.03
75668;BME280;64266;48.798;44.756;2022-12-10T08:53:08;102814.50;;;0.94;55.11
75668;BME280;64266;48.798;44.756;2022-12-10T08:56:01;102784.41;;;0.88;55.23
75668;BME280;64266;48.798;44.756;2022-12-10T08:58:33;102831.09;;;1.05;54.46
75668;BME280;64266;48.798;44.756;2022-12-10T09:00:59;102829.53;;;1.16;54.00
75668;BME280;64266;48.798;44.756;2022-12-10T09:03:27;102810.31;;;1.29;55.35
75668;BME280;64266;48.798;44.756;2022-12-10T09:05:52;102804.88;;;1.20;54.73
75668;BME280;64266;48.798;44.756;2022-12-10T09:08:18;102777.16;;;1.17;53.66
75668;BME280;64266;48.798;44.756;2022-12-10T09:10:44;102812.88;;;1.42;54.33
75668;BME280;64266;48.798;44.756;2022-12-10T09:13:10;102799.66;;;1.32;53.88
75668;BME280;64266;48.798;44.756;2022-12-10T09:15:39;102785.75;;;1.19;54.75
75668;BME280;64266;48.798;44.756;2022-12-10T09:18:06;102787.94;;;1.25;54.80
75668;BME280;64266;48.798;44.756;2022-12-10T09:20:31;102796.47;;;1.40;54.40
75668;BME280;64266;48.798;44.756;2022-12-10T09:22:58;102798.88;;;1.43;54.58
75668;BME280;64266;48.798;44.756;2022-12-10T09:25:24;102776.13;;;1.32;54.21
75668;BME280;64266;48.798;44.756;2022-12-10T09:27:50;102787.38;;;1.45;54.25
75668;BME280;64266;48.798;44.756;2022-12-10T09:30:16;102765.66;;;1.32;54.99
75668;BME280;64266;48.798;44.756;2022-12-10T09:32:43;102750.16;;;1.42;54.45
75668;BME280;64266;48.798;44.756;2022-12-10T09:35:10;102796.81;;;1.72;54.57
75668;BME280;64266;48.798;44.756;2022-12-10T09:37:36;102759.03;;;1.39;54.84
75668;BME280;64266;48.798;44.756;2022-12-10T09:40:03;102787.06;;;1.74;54.62
75668;BME280;64266;48.798;44.756;2022-12-10T09:42:50;102765.31;;;1.49;54.75
75668;BME280;64266;48.798;44.756;2022-12-10T09:45:51;102781.75;;;1.75;54.85
75668;BME280;64266;48.798;44.756;2022-12-10T09:48:43;102788.84;;;1.73;54.15
75668;BME280;64266;48.798;44.756;2022-12-10T09:51:22;102788.59;;;1.52;54.63
75668;BME280;64266;48.798;44.756;2022-12-10T09:53:52;102730.13;;;1.17;54.94
75668;BME280;64266;48.798;44.756;2022-12-10T09:56:33;102777.97;;;1.43;55.67
75668;BME280;64266;48.798;44.756;2022-12-10T09:59:06;102758.13;;;1.40;55.78
75668;BME280;64266;48.798;44.756;2022-12-10T10:01:37;102763.34;;;1.40;56.03
75668;BME280;64266;48.798;44.756;2022-12-10T10:04:04;102713.88;;;1.14;55.56
75668;BME280;64266;48.798;44.756;2022-12-10T10:06:31;102747.59;;;1.29;54.92
75668;BME280;64266;48.798;44.756;2022-12-10T10:09:00;102774.22;;;1.34;56.13
75668;BME280;64266;48.798;44.756;2022-12-10T10:11:30;102760.66;;;1.29;56.24
75668;BME280;64266;48.798;44.756;2022-12-10T10:14:00;102733.19;;;1.11;55.75
75668;BME280;64266;48.798;44.756;2022-12-10T10:16:36;102742.47;;;1.28;55.61
75668;BME280;64266;48.798;44.756;2022-12-10T10:19:16;102760.78;;;1.51;55.28
75668;BME280;64266;48.798;44.756;2022-12-10T10:21:45;102762.47;;;1.52;55.48
75668;BME280;64266;48.798;44.756;2022-12-10T10:24:14;102772.16;;;1.63;55.59
75668;BME280;64266;48.798;44.756;2022-12-10T10:26:40;102754.91;;;1.60;55.66
75668;BME280;64266;48.798;44.756;2022-12-10T10:29:09;102724.34;;;1.37;55.91
75668;BME280;64266;48.798;44.756;2022-12-10T10:31:40;102727.47;;;1.42;55.96
75668;BME280;64266;48.798;44.756;2022-12-10T10:34:19;102729.13;;;1.43;56.03
75668;BME280;64266;48.798;44.756;2022-12-10T10:36:47;102720.63;;;1.52;55.93
75668;BME280;64266;48.798;44.756;2022-12-10T10:41:42;102728.69;;;1.73;56.69
75668;BME280;64266;48.798;44.756;2022-12-10T10:44:16;102708.13;;;1.69;56.04
75668;BME280;64266;48.798;44.756;2022-12-10T10:46:46;102731.63;;;1.81;56.97
75668;BME280;64266;48.798;44.756;2022-12-10T10:49:24;102726.47;;;1.80;56.76
75668;BME280;64266;48.798;44.756;2022-12-10T10:52:34;102740.72;;;1.76;57.18
75668;BME280;64266;48.798;44.756;2022-12-10T10:54:44;102704.19;;;1.63;56.59
75668;BME280;64266;48.798;44.756;2022-12-10T10:57:34;102708.56;;;1.62;56.95
75668;BME280;64266;48.798;44.756;2022-12-10T11:00:16;102727.16;;;1.71;56.71
75668;BME280;64266;48.798;44.756;2022-12-10T11:02:43;102724.81;;;1.79;57.47
75668;BME280;64266;48.798;44.756;2022-12-10T11:07:57;102720.56;;;1.89;58.31
75668;BME280;64266;48.798;44.756;2022-12-10T11:10:24;102672.22;;;1.71;57.48
75668;BME280;64266;48.798;44.756;2022-12-10T11:13:03;102710.81;;;1.91;56.94
75668;BME280;64266;48.798;44.756;2022-12-10T11:15:36;102719.06;;;1.97;57.54
75668;BME280;64266;48.798;44.756;2022-12-10T11:18:23;102714.88;;;1.95;57.29
75668;BME280;64266;48.798;44.756;2022-12-10T11:21:01;102704.78;;;1.90;56.97
75668;BME280;64266;48.798;44.756;2022-12-10T11:23:30;102723.03;;;2.03;56.77
75668;BME280;64266;48.798;44.756;2022-12-10T11:26:02;102703.03;;;2.02;57.16
75668;BME280;64266;48.798;44.756;2022-12-10T11:28:39;102720.66;;;2.11;57.56
75668;BME280;64266;48.798;44.756;2022-12-10T11:31:22;102717.44;;;2.07;57.17
75668;BME280;64266;48.798;44.756;2022-12-10T11:34:14;102707.19;;;2.04;57.33
75668;BME280;64266;48.798;44.756;2022-12-10T11:37:13;102719.81;;;2.10;57.17
75668;BME280;64266;48.798;44.756;2022-12-10T11:40:00;102718.53;;;2.16;57.06
75668;BME280;64266;48.798;44.756;2022-12-10T12:07:33;102685.38;;;2.28;57.52
75668;BME280;64266;48.798;44.756;2022-12-10T12:12:51;102713.47;;;2.37;57.66
75668;BME280;64266;48.798;44.756;2022-12-10T12:21:28;102707.19;;;2.39;58.11
75668;BME280;64266;48.798;44.756;2022-12-10T12:26:32;102702.66;;;2.41;57.82
75668;BME280;64266;48.798;44.756;2022-12-10T12:31:42;102703.72;;;2.39;57.74
75668;BME280;64266;48.798;44.756;2022-12-10T12:34:21;102683.25;;;2.33;58.35
75668;BME280;64266;48.798;44.756;2022-12-10T12:36:51;102719.91;;;2.44;58.41
75668;BME280;64266;48.798;44.756;2022-12-10T12:41:59;102717.28;;;2.33;58.68
75668;BME280;64266;48.798;44.756;2022-12-10T12:44:40;102720.13;;;2.30;59.46
75668;BME280;64266;48.798;44.756;2022-12-10T12:47:22;102715.22;;;2.25;59.72
75668;BME280;64266;48.798;44.756;2022-12-10T12:50:24;102725.22;;;2.31;59.91
75668;BME280;64266;48.798;44.756;2022-12-10T12:52:58;102692.88;;;2.21;60.02
75668;BME280;64266;48.798;44.756;2022-12-10T12:55:49;102718.66;;;2.26;60.18
75668;BME280;64266;48.798;44.756;2022-12-10T12:58:34;102729.03;;;2.27;59.49
75668;BME280;64266;48.798;44.756;2022-12-10T13:01:26;102679.56;;;2.00;60.57
75668;BME280;64266;48.798;44.756;2022-12-10T13:03:55;102674.94;;;1.93;60.28
75668;BME280;64266;48.798;44.756;2022-12-10T13:06:30;102699.41;;;2.27;59.96
75668;BME280;64266;48.798;44.756;2022-12-10T13:09:17;102700.25;;;2.27;59.74
75668;BME280;64266;48.798;44.756;2022-12-10T13:14:54;102692.25;;;2.29;59.64
75668;BME280;64266;48.798;44.756;2022-12-10T13:17:34;102710.50;;;2.41;59.80
75668;BME280;64266;48.798;44.756;2022-12-10T13:20:44;102715.03;;;2.39;59.83
75668;BME280;64266;48.798;44.756;2022-12-10T13:34:35;102649.31;;;1.74;60.28
75668;BME280;64266;48.798;44.756;2022-12-10T13:42:20;102652.75;;;1.75;60.48
75668;BME280;64266;48.798;44.756;2022-12-10T13:45:24;102725.50;;;2.04;60.64
75668;BME280;64266;48.798;44.756;2022-12-10T13:47:53;102726.41;;;1.92;61.08
75668;BME280;64266;48.798;44.756;2022-12-10T13:53:05;102731.56;;;1.94;60.78
75668;BME280;64266;48.798;44.756;2022-12-10T13:55:40;102728.94;;;1.94;60.96
75668;BME280;64266;48.798;44.756;2022-12-10T14:01:11;102735.78;;;1.84;60.89
75668;BME280;64266;48.798;44.756;2022-12-10T14:06:34;102720.63;;;1.76;60.79
75668;BME280;64266;48.798;44.756;2022-12-10T14:09:03;102730.78;;;1.81;60.52
75668;BME280;64266;48.798;44.756;2022-12-10T14:11:57;102724.09;;;1.77;61.48
75668;BME280;64266;48.798;44.756;2022-12-10T14:14:37;102681.66;;;1.49;61.32
75668;BME280;64266;48.798;44.756;2022-12-10T14:17:31;102728.44;;;1.65;60.87
75668;BME280;64266;48.798;44.756;2022-12-10T14:19:59;102716.03;;;1.56;61.38
75668;BME280;64266;48.798;44.756;2022-12-10T14:22:38;102732.22;;;1.61;60.92
75668;BME280;64266;48.798;44.756;2022-12-10T14:25:10;102739.59;;;1.67;61.68
75668;BME280;64266;48.798;44.756;2022-12-10T14:27:39;102698.03;;;1.51;61.43
75668;BME280;64266;48.798;44.756;2022-12-10T14:30:22;102727.75;;;1.74;61.29
75668;BME280;64266;48.798;44.756;2022-12-10T14:32:50;102736.38;;;1.63;60.96
75668;BME280;64266;48.798;44.756;2022-12-10T14:35:22;102736.59;;;1.60;61.37
75668;BME280;64266;48.798;44.756;2022-12-10T14:37:50;102733.25;;;1.58;60.85
75668;BME280;64266;48.798;44.756;2022-12-10T14:40:28;102735.75;;;1.60;61.37
75668;BME280;64266;48.798;44.756;2022-12-10T14:43:04;102724.34;;;1.37;61.54
75668;BME280;64266;48.798;44.756;2022-12-10T14:45:57;102694.22;;;1.08;61.58